Hlavní strana
METAR-TAF:

METAR-TAF

Letiště :

Robinson Municipal Airport

Robinson, Illinois, Spojené státy americké

zeměpisná šířka: 39-00-57N, zeměpisná délka: 087-38-59W, výška: 141 m

Aktuální stav počasí

Zpráva byla vytvořena před 16 minutami, v 07:55 UTC
Západní vítr 3 kt
Teplota 18°C
Vlhkost vzduchu 100%
Tlak 1013 hPa
Viditelnost: 16.1 km
Oblačno až skoro zataženo ve výšce 9000 ft
Oblačno až skoro zataženo ve výšce 11000 ft

METAR: KRSV 290755Z AUTO 27003KT 10SM BKN090 BKN110 18/18 A2992 RMK AO2 T01820182

Čas: 03:11 (08:11 UTC)


TAF: chybějící

Stav a předpovědi počasí z více než 4 000 letišť (zprávy METAR a TAF).

Červené a žluté tečky na mapě představují dostupné meteorologické stanice.

Když kurzor umístíte na tečku, zobrazí se název stanice.

Pak kliknutím zobrazíte stav a předpověď počasí.

Chcete-li změnit mapu, kliknutím na zelené tlačítko se znaménkem +mapu přiblížíte, kliknutím na zelené tlačítko se znaménkem – mapu oddálíte a kliknutím na zelené šipky přejdete na sousední mapy.


METAR-TAF: